createdAt,value
2023-01-31T00:01:40.488Z,99531.75
2023-01-31T00:04:11.456Z,99519.41
2023-01-31T00:06:42.254Z,99520.91
2023-01-31T00:09:11.781Z,99518.63
2023-01-31T00:11:39.523Z,99507.25
2023-01-31T00:14:08.306Z,99509.22
2023-01-31T00:16:37.158Z,99512.13
2023-01-31T00:19:04.802Z,99512.81
2023-01-31T00:21:32.892Z,99504.63
2023-01-31T00:24:01.167Z,99518.44
2023-01-31T00:26:33.926Z,99515.59
2023-01-31T00:29:04.088Z,99529.53
2023-01-31T00:31:33.834Z,99539.72
2023-01-31T00:34:02.352Z,99543.78
2023-01-31T00:36:34.842Z,99527.72
2023-01-31T00:39:04.836Z,99546.19
2023-01-31T00:41:35.868Z,99545.13
2023-01-31T00:44:05.812Z,99536.59
2023-01-31T00:46:33.620Z,99536.13
2023-01-31T00:49:02.267Z,99522.72
2023-01-31T00:51:30.049Z,99521.22
2023-01-31T00:53:57.510Z,99532.78
2023-01-31T00:56:25.867Z,99536.81
2023-01-31T00:58:53.814Z,99542.16
2023-01-31T01:01:26.820Z,99535.44
2023-01-31T01:03:56.649Z,99522.34
2023-01-31T01:06:24.461Z,99510.88
2023-01-31T01:08:52.418Z,99521.44
2023-01-31T01:11:22.809Z,99528.47
2023-01-31T01:13:51.109Z,99528.19
2023-01-31T01:16:24.216Z,99537.81
2023-01-31T01:18:55.026Z,99524.66
2023-01-31T01:21:27.662Z,99530.47
2023-01-31T01:24:00.801Z,99521.91
2023-01-31T01:26:31.116Z,99524.38
2023-01-31T01:29:00.709Z,99531.97
2023-01-31T01:31:32.851Z,99530.63
2023-01-31T01:34:21.037Z,99533.50
2023-01-31T01:36:48.542Z,99543.78
2023-01-31T01:39:16.751Z,99551.84
2023-01-31T01:41:44.544Z,99546.47
2023-01-31T01:44:49.466Z,99555.34
2023-01-31T01:47:18.014Z,99553.47
2023-01-31T01:49:48.127Z,99568.38
2023-01-31T01:52:16.357Z,99569.97
2023-01-31T01:54:53.105Z,99580.53
2023-01-31T01:57:24.708Z,99571.91
2023-01-31T02:00:04.921Z,99568.25
2023-01-31T02:02:43.783Z,99572.31
2023-01-31T02:05:14.861Z,99578.28
2023-01-31T02:07:42.942Z,99572.13
2023-01-31T02:10:17.982Z,99575.28
2023-01-31T02:12:46.378Z,99582.16
2023-01-31T02:15:14.295Z,99586.62
2023-01-31T02:17:41.970Z,99581.91
2023-01-31T02:20:28.957Z,99602.75
2023-01-31T02:23:19.052Z,99597.81
2023-01-31T02:25:49.813Z,99608.72
2023-01-31T02:28:54.907Z,99609.88
2023-01-31T02:31:42.820Z,99608.59
2023-01-31T02:34:30.290Z,99618.72
2023-01-31T02:37:17.244Z,99618.44
2023-01-31T02:39:51.242Z,99622.91
2023-01-31T02:42:28.709Z,99625.78
2023-01-31T02:45:06.635Z,99645.22
2023-01-31T02:47:57.116Z,99637.56
2023-01-31T02:50:29.460Z,99643.09
2023-01-31T02:53:16.572Z,99647.16
2023-01-31T02:56:11.283Z,99653.09
2023-01-31T02:58:40.288Z,99661.09
2023-01-31T03:01:11.290Z,99662.44
2023-01-31T03:03:39.432Z,99667.91
2023-01-31T03:06:10.988Z,99670.97
2023-01-31T03:08:41.448Z,99671.56
2023-01-31T03:11:09.980Z,99669.75
2023-01-31T03:14:05.592Z,99669.31
2023-01-31T03:17:01.648Z,99672.22
2023-01-31T03:19:36.344Z,99670.22
2023-01-31T03:22:16.324Z,99679.50
2023-01-31T03:24:47.451Z,99688.78
2023-01-31T03:27:15.660Z,99693.47
2023-01-31T03:29:44.032Z,99695.84
2023-01-31T03:32:20.835Z,99683.56
2023-01-31T03:34:48.999Z,99675.47
2023-01-31T03:37:22.465Z,99687.06
2023-01-31T03:40:05.930Z,99690.19
2023-01-31T03:42:44.688Z,99694.53
2023-01-31T03:45:17.156Z,99695.13
2023-01-31T03:47:47.293Z,99685.47
2023-01-31T03:50:25.951Z,99695.59
2023-01-31T03:53:17.136Z,99696.94
2023-01-31T03:55:58.910Z,99702.44
2023-01-31T03:58:29.210Z,99703.87
2023-01-31T04:00:59.683Z,99699.78
2023-01-31T04:03:30.787Z,99696.59
2023-01-31T04:05:59.175Z,99713.47
2023-01-31T04:08:27.060Z,99713.16
2023-01-31T04:10:55.369Z,99724.38
2023-01-31T04:13:22.775Z,99720.88
2023-01-31T04:15:50.665Z,99714.56
2023-01-31T04:18:18.206Z,99720.22
2023-01-31T04:20:45.694Z,99721.69
2023-01-31T04:23:13.564Z,99724.31
2023-01-31T04:25:41.059Z,99731.88
2023-01-31T04:28:08.502Z,99746.25
2023-01-31T04:30:36.617Z,99738.22
2023-01-31T04:33:04.265Z,99732.84
2023-01-31T04:35:32.043Z,99731.09
2023-01-31T04:38:00.076Z,99738.97
2023-01-31T04:40:27.737Z,99747.88
2023-01-31T04:42:55.401Z,99748.94
2023-01-31T04:45:23.241Z,99753.44
2023-01-31T04:47:51.133Z,99761.81
2023-01-31T04:50:18.589Z,99759.84
2023-01-31T04:52:49.854Z,99764.47
2023-01-31T04:55:18.082Z,99776.66
2023-01-31T04:57:46.293Z,99770.34
2023-01-31T05:00:14.390Z,99778.66
2023-01-31T05:02:41.884Z,99763.94
2023-01-31T05:05:09.854Z,99771.75
2023-01-31T05:07:38.692Z,99751.59
2023-01-31T05:10:07.625Z,99763.00
2023-01-31T05:12:36.291Z,99764.06
2023-01-31T05:15:05.093Z,99766.84
2023-01-31T05:17:32.657Z,99778.59
2023-01-31T05:20:00.543Z,99773.88
2023-01-31T05:22:28.031Z,99771.97
2023-01-31T05:24:57.552Z,99777.69
2023-01-31T05:27:26.939Z,99785.50
2023-01-31T05:29:54.893Z,99786.66
2023-01-31T05:32:23.672Z,99780.94
2023-01-31T05:34:51.434Z,99787.69
2023-01-31T05:37:19.480Z,99789.91
2023-01-31T05:39:46.957Z,99786.19
2023-01-31T05:42:14.751Z,99788.25
2023-01-31T05:44:42.242Z,99789.06
2023-01-31T05:47:09.936Z,99803.31
2023-01-31T05:49:37.872Z,99802.00
2023-01-31T05:52:05.513Z,99804.09
2023-01-31T05:54:33.514Z,99814.62
2023-01-31T05:57:01.499Z,99810.41
2023-01-31T05:59:31.373Z,99819.25
2023-01-31T06:01:59.730Z,99816.97
2023-01-31T06:04:27.586Z,99819.00
2023-01-31T06:06:55.049Z,99816.56
2023-01-31T06:09:22.674Z,99819.94
2023-01-31T06:11:50.631Z,99835.22
2023-01-31T06:14:18.196Z,99830.22
2023-01-31T06:16:45.858Z,99824.91
2023-01-31T06:19:13.655Z,99832.81
2023-01-31T06:21:42.300Z,99833.22
2023-01-31T06:24:09.991Z,99841.94
2023-01-31T06:26:37.720Z,99850.56
2023-01-31T06:29:05.586Z,99856.63
2023-01-31T06:31:33.281Z,99860.47
2023-01-31T06:34:01.460Z,99860.44
2023-01-31T06:36:31.622Z,99855.59
2023-01-31T06:38:59.373Z,99867.28
2023-01-31T06:41:27.619Z,99873.47
2023-01-31T06:43:58.057Z,99869.00
2023-01-31T06:46:25.495Z,99872.56
2023-01-31T06:48:53.347Z,99881.66
2023-01-31T06:51:20.932Z,99883.81
2023-01-31T06:53:48.793Z,99889.66
2023-01-31T06:56:17.104Z,99899.97
2023-01-31T06:58:44.576Z,99895.91
2023-01-31T07:01:14.199Z,99902.78
2023-01-31T07:03:42.276Z,99899.47
2023-01-31T07:06:10.977Z,99899.19
2023-01-31T07:08:38.481Z,99911.91
2023-01-31T07:11:06.415Z,99903.94
2023-01-31T07:13:35.008Z,99909.69
2023-01-31T07:16:02.565Z,99917.16
2023-01-31T07:18:31.397Z,99915.78
2023-01-31T07:21:01.696Z,99927.47
2023-01-31T07:23:32.487Z,99926.75
2023-01-31T07:26:05.317Z,99920.97
2023-01-31T07:28:33.006Z,99923.97
2023-01-31T07:31:11.866Z,99928.38
2023-01-31T07:33:39.906Z,99927.91
2023-01-31T07:36:16.316Z,99929.53
2023-01-31T07:38:53.739Z,99931.78
2023-01-31T07:41:29.148Z,99939.37
2023-01-31T07:44:33.233Z,99951.38
2023-01-31T07:47:43.622Z,99955.25
2023-01-31T07:58:12.664Z,99947.84
2023-01-31T08:01:27.476Z,99961.81
2023-01-31T08:07:43.382Z,99964.75
2023-01-31T08:14:41.481Z,99973.53
2023-01-31T08:17:18.743Z,99973.66
2023-01-31T08:20:11.323Z,99977.78
2023-01-31T08:22:42.575Z,99985.22
2023-01-31T08:25:14.581Z,99987.88
2023-01-31T08:27:44.217Z,99990.75
2023-01-31T08:30:16.665Z,100010.47
2023-01-31T08:32:46.133Z,100013.09
2023-01-31T08:35:15.579Z,100013.66
2023-01-31T08:37:43.683Z,100033.13
2023-01-31T08:40:13.629Z,100032.78
2023-01-31T08:42:42.648Z,100038.94
2023-01-31T08:45:14.707Z,100038.94
2023-01-31T08:47:43.041Z,100044.75
2023-01-31T08:50:27.230Z,100044.94
2023-01-31T08:53:08.580Z,100057.81
2023-01-31T08:55:37.093Z,100064.00
2023-01-31T08:58:08.691Z,100060.91
2023-01-31T09:00:37.911Z,100058.16
2023-01-31T09:03:09.724Z,100064.06
2023-01-31T09:05:39.046Z,100072.38
2023-01-31T09:08:08.008Z,100060.25
2023-01-31T09:10:37.159Z,100065.38
2023-01-31T09:13:11.505Z,100072.53
2023-01-31T09:15:40.737Z,100074.41
2023-01-31T09:18:10.008Z,100070.41
2023-01-31T09:20:39.502Z,100075.44
2023-01-31T09:23:09.568Z,100073.16
2023-01-31T09:25:47.024Z,100074.28
2023-01-31T09:28:15.827Z,100086.53
2023-01-31T09:30:47.725Z,100081.47
2023-01-31T09:33:18.006Z,100072.25
2023-01-31T09:36:03.506Z,100074.87
2023-01-31T09:38:38.190Z,100079.75
2023-01-31T09:41:39.702Z,100077.63
2023-01-31T09:44:13.333Z,100071.94
2023-01-31T09:46:46.111Z,100068.78
2023-01-31T09:49:18.900Z,100082.91
2023-01-31T09:51:52.907Z,100085.69
2023-01-31T09:54:29.472Z,100082.75
2023-01-31T09:57:41.858Z,100075.59
2023-01-31T10:00:41.688Z,100068.75
2023-01-31T10:03:25.853Z,100070.06
2023-01-31T10:06:06.302Z,100073.16
2023-01-31T10:08:59.659Z,100074.97
2023-01-31T10:11:41.845Z,100062.53
2023-01-31T10:14:29.262Z,100061.75
2023-01-31T10:17:15.792Z,100056.22
2023-01-31T10:19:57.515Z,100072.38
2023-01-31T10:22:40.468Z,100072.78
2023-01-31T10:25:22.139Z,100061.00
2023-01-31T10:28:12.081Z,100070.16
2023-01-31T10:30:48.975Z,100064.84
2023-01-31T10:33:34.955Z,100074.06
2023-01-31T10:36:18.644Z,100063.00
2023-01-31T10:39:19.505Z,100056.25
2023-01-31T10:42:14.616Z,100037.97
2023-01-31T10:45:02.815Z,100039.75
2023-01-31T10:47:38.041Z,100056.00
2023-01-31T10:50:24.701Z,100053.16
2023-01-31T10:53:43.992Z,100045.66
2023-01-31T10:56:37.862Z,100035.72
2023-01-31T10:59:37.506Z,100029.63
2023-01-31T11:02:19.979Z,100031.22
2023-01-31T11:04:52.083Z,100029.16
2023-01-31T11:07:23.539Z,100027.91
2023-01-31T11:09:55.005Z,100027.28
2023-01-31T11:12:41.202Z,100031.47
2023-01-31T11:15:18.630Z,100021.13
2023-01-31T11:17:48.215Z,100027.81
2023-01-31T11:20:46.611Z,100031.53
2023-01-31T11:23:27.432Z,100021.94
2023-01-31T11:25:58.517Z,100040.31
2023-01-31T11:28:40.021Z,100045.72
2023-01-31T11:31:20.406Z,100032.69
2023-01-31T11:33:59.847Z,100036.25
2023-01-31T11:36:42.495Z,100039.59
2023-01-31T11:39:26.453Z,100028.09
2023-01-31T11:41:55.351Z,100041.91
2023-01-31T11:44:30.665Z,100023.16
2023-01-31T11:47:08.083Z,100037.22
2023-01-31T11:49:40.153Z,100016.31
2023-01-31T11:52:15.670Z,100014.63
2023-01-31T11:54:53.514Z,100022.59
2023-01-31T11:57:48.701Z,100012.91
2023-01-31T12:00:25.941Z,100013.75
2023-01-31T12:03:09.330Z,100008.53
2023-01-31T12:05:42.039Z,100007.63
2023-01-31T12:08:36.506Z,100016.16
2023-01-31T12:11:37.659Z,100001.84
2023-01-31T12:14:16.787Z,100005.78
2023-01-31T12:16:55.851Z,100012.00
2023-01-31T12:19:31.174Z,100009.16
2023-01-31T12:22:04.818Z,100010.97
2023-01-31T12:25:01.771Z,100014.72
2023-01-31T12:28:01.663Z,100006.50
2023-01-31T12:30:53.804Z,100008.03
2023-01-31T12:33:44.743Z,100020.44
2023-01-31T12:36:40.285Z,100018.38
2023-01-31T12:39:37.325Z,100024.53
2023-01-31T12:42:43.539Z,100030.13
2023-01-31T12:45:30.720Z,100025.12
2023-01-31T12:48:23.185Z,100038.62
2023-01-31T12:51:29.036Z,100044.03
2023-01-31T12:54:31.096Z,100050.72
2023-01-31T12:57:20.511Z,100049.25
2023-01-31T13:00:17.425Z,100048.69
2023-01-31T13:03:08.534Z,100067.41
2023-01-31T13:05:48.478Z,100066.75
2023-01-31T13:08:26.481Z,100074.44
2023-01-31T13:11:12.587Z,100071.34
2023-01-31T13:13:50.201Z,100069.09
2023-01-31T13:16:31.334Z,100073.94
2023-01-31T13:19:40.012Z,100067.75
2023-01-31T13:22:20.430Z,100080.00
2023-01-31T13:25:17.443Z,100076.62
2023-01-31T13:27:57.645Z,100082.97
2023-01-31T13:30:38.103Z,100074.34
2023-01-31T13:33:25.393Z,100095.81
2023-01-31T13:36:18.529Z,100086.09
2023-01-31T13:38:53.470Z,100084.66
2023-01-31T13:41:39.459Z,100077.22
2023-01-31T13:44:13.648Z,100081.06
2023-01-31T13:46:59.520Z,100087.44
2023-01-31T13:49:48.019Z,100084.50
2023-01-31T13:52:29.702Z,100095.31
2023-01-31T13:55:01.360Z,100094.34
2023-01-31T14:03:02.658Z,100097.41
2023-01-31T14:08:54.408Z,100097.72
2023-01-31T14:11:33.515Z,100095.88
2023-01-31T14:14:11.813Z,100108.28
2023-01-31T14:16:46.215Z,100113.78
2023-01-31T14:19:24.128Z,100112.19
2023-01-31T14:22:05.643Z,100110.78
2023-01-31T14:24:47.397Z,100115.37
2023-01-31T14:27:30.106Z,100123.09
2023-01-31T14:30:37.685Z,100118.56
2023-01-31T14:33:09.577Z,100118.56
2023-01-31T14:36:06.400Z,100117.78
2023-01-31T14:39:02.540Z,100113.53
2023-01-31T14:41:50.878Z,100109.50
2023-01-31T14:44:50.517Z,100115.81
2023-01-31T14:47:26.340Z,100115.56
2023-01-31T14:50:15.939Z,100114.53
2023-01-31T14:53:15.433Z,100109.44
2023-01-31T14:55:49.168Z,100105.44
2023-01-31T14:58:25.841Z,100098.41
2023-01-31T15:01:02.271Z,100101.34
2023-01-31T15:03:56.756Z,100099.69
2023-01-31T15:06:30.829Z,100101.03
2023-01-31T15:09:25.400Z,100110.69
2023-01-31T15:12:08.009Z,100115.09
2023-01-31T15:17:37.641Z,100120.12
2023-01-31T15:23:13.442Z,100112.69
2023-01-31T15:25:49.953Z,100128.78
2023-01-31T15:28:31.651Z,100131.06
2023-01-31T15:31:11.559Z,100131.53
2023-01-31T15:33:54.602Z,100130.53
2023-01-31T15:36:36.437Z,100134.91
2023-01-31T15:39:30.442Z,100133.78
2023-01-31T15:42:26.842Z,100139.38
2023-01-31T15:45:17.628Z,100133.69
2023-01-31T15:47:56.465Z,100125.53
2023-01-31T15:50:29.787Z,100114.28
2023-01-31T15:53:21.405Z,100121.81
2023-01-31T15:56:05.455Z,100116.81
2023-01-31T15:58:46.748Z,100108.16
2023-01-31T16:01:23.827Z,100121.75
2023-01-31T16:03:57.608Z,100111.66
2023-01-31T16:06:41.586Z,100118.91
2023-01-31T16:09:26.475Z,100119.69
2023-01-31T16:11:58.720Z,100125.97
2023-01-31T16:14:33.877Z,100124.56
2023-01-31T16:17:09.181Z,100122.19
2023-01-31T16:19:39.492Z,100118.81
2023-01-31T16:22:31.107Z,100119.63
2023-01-31T16:25:21.116Z,100122.06
2023-01-31T16:30:36.655Z,100123.09
2023-01-31T16:33:32.267Z,100122.16
2023-01-31T16:36:23.432Z,100121.94
2023-01-31T16:39:11.663Z,100118.69
2023-01-31T16:41:51.941Z,100125.56
2023-01-31T16:44:38.583Z,100119.44
2023-01-31T16:47:07.440Z,100124.06
2023-01-31T16:49:37.692Z,100125.69
2023-01-31T16:52:18.859Z,100132.63
2023-01-31T17:00:24.734Z,100126.44
2023-01-31T17:05:47.500Z,100125.84
2023-01-31T17:08:21.655Z,100124.91
2023-01-31T17:10:56.447Z,100124.94
2023-01-31T17:16:08.491Z,100114.31
2023-01-31T17:18:41.604Z,100127.97
2023-01-31T17:23:48.803Z,100116.13
2023-01-31T17:26:30.720Z,100119.19
2023-01-31T17:31:54.610Z,100121.94
2023-01-31T17:34:26.631Z,100128.28
2023-01-31T17:37:03.570Z,100127.44
2023-01-31T17:42:18.126Z,100116.31
2023-01-31T17:44:51.443Z,100116.81
2023-01-31T17:47:31.413Z,100119.31
2023-01-31T17:50:00.988Z,100121.31
2023-01-31T17:55:24.029Z,100120.41
2023-01-31T17:57:54.497Z,100120.97
2023-01-31T18:03:16.051Z,100114.97
2023-01-31T18:11:15.470Z,100099.44
2023-01-31T18:13:53.633Z,100098.84
2023-01-31T18:22:08.658Z,100104.81
2023-01-31T18:24:45.420Z,100100.56
2023-01-31T18:27:20.458Z,100101.50
2023-01-31T18:30:08.341Z,100105.31
2023-01-31T18:35:13.809Z,100097.47
2023-01-31T18:37:54.467Z,100101.16
2023-01-31T18:40:38.567Z,100099.00
2023-01-31T18:43:13.764Z,100101.44
2023-01-31T18:48:25.519Z,100101.34
2023-01-31T18:50:55.568Z,100105.81
2023-01-31T18:53:33.219Z,100112.63
2023-01-31T18:56:09.804Z,100105.19
2023-01-31T18:58:54.585Z,100102.34
2023-01-31T19:01:24.295Z,100102.72
2023-01-31T19:09:25.390Z,100094.78
2023-01-31T19:14:42.051Z,100104.94
2023-01-31T19:17:15.776Z,100103.25
2023-01-31T19:19:53.497Z,100102.78
2023-01-31T19:22:28.618Z,100106.59
2023-01-31T19:27:41.521Z,100108.91
2023-01-31T19:30:17.280Z,100109.41
2023-01-31T19:32:53.700Z,100115.81
2023-01-31T19:35:30.890Z,100114.44
2023-01-31T19:38:05.810Z,100116.19
2023-01-31T19:40:35.781Z,100115.13
2023-01-31T19:43:04.858Z,100102.31
2023-01-31T19:45:46.326Z,100106.25
2023-01-31T19:48:19.852Z,100106.56
2023-01-31T19:50:50.725Z,100106.56
2023-01-31T19:53:28.405Z,100113.97
2023-01-31T19:56:00.799Z,100115.72
2023-01-31T20:01:26.463Z,100107.28
2023-01-31T20:04:03.253Z,100121.06
2023-01-31T20:06:35.709Z,100121.44
2023-01-31T20:09:08.260Z,100113.53
2023-01-31T20:11:42.635Z,100110.94
2023-01-31T20:17:00.623Z,100102.94
2023-01-31T20:19:37.682Z,100109.28
2023-01-31T20:22:11.648Z,100113.38
2023-01-31T20:24:49.138Z,100110.38
2023-01-31T20:27:36.547Z,100109.19
2023-01-31T20:30:20.502Z,100096.47
2023-01-31T20:35:37.321Z,100102.50
2023-01-31T20:38:22.582Z,100104.75
2023-01-31T20:43:28.510Z,100109.28
2023-01-31T20:46:11.389Z,100110.84
2023-01-31T20:48:58.332Z,100105.63
2023-01-31T20:51:31.860Z,100107.56
2023-01-31T20:54:07.603Z,100095.94
2023-01-31T20:56:42.006Z,100081.50
2023-01-31T20:59:14.013Z,100083.66
2023-01-31T21:01:47.173Z,100078.53
2023-01-31T21:04:19.184Z,100082.91
2023-01-31T21:06:50.373Z,100084.87
2023-01-31T21:09:23.359Z,100078.28
2023-01-31T21:11:57.565Z,100088.53
2023-01-31T21:14:31.659Z,100077.50
2023-01-31T21:17:08.751Z,100067.53
2023-01-31T21:19:43.026Z,100069.16
2023-01-31T21:22:14.423Z,100065.09
2023-01-31T21:24:43.400Z,100066.97
2023-01-31T21:27:19.700Z,100071.00
2023-01-31T21:30:11.593Z,100063.91
2023-01-31T21:32:41.508Z,100060.38
2023-01-31T21:35:10.366Z,100067.06
2023-01-31T21:37:40.492Z,100063.91
2023-01-31T21:40:13.623Z,100057.41
2023-01-31T21:42:44.359Z,100059.38
2023-01-31T21:45:15.952Z,100062.28
2023-01-31T21:50:55.640Z,100057.81
2023-01-31T21:53:23.187Z,100060.41
2023-01-31T21:55:50.670Z,100056.56
2023-01-31T21:58:20.928Z,100055.97
2023-01-31T22:00:55.388Z,100065.28
2023-01-31T22:03:28.502Z,100061.94
2023-01-31T22:06:03.384Z,100057.50
2023-01-31T22:08:35.706Z,100060.84
2023-01-31T22:11:07.004Z,100061.63
2023-01-31T22:13:37.214Z,100060.31
2023-01-31T22:16:11.304Z,100059.94
2023-01-31T22:18:45.969Z,100065.03
2023-01-31T22:21:19.437Z,100055.16
2023-01-31T22:23:53.766Z,100065.44
2023-01-31T22:26:27.500Z,100065.09
2023-01-31T22:29:02.528Z,100059.50
2023-01-31T22:31:33.741Z,100045.25
2023-01-31T22:34:04.690Z,100051.25
2023-01-31T22:36:33.528Z,100044.94
2023-01-31T22:39:06.045Z,100050.59
2023-01-31T22:41:35.592Z,100045.78
2023-01-31T22:44:04.924Z,100044.59
2023-01-31T22:46:34.082Z,100034.22
2023-01-31T22:49:02.221Z,100027.56
2023-01-31T22:51:30.501Z,100023.03
2023-01-31T22:53:59.500Z,100026.06
2023-01-31T22:56:31.324Z,100010.88
2023-01-31T22:59:06.845Z,100009.44
2023-01-31T23:01:45.588Z,100009.44
2023-01-31T23:04:19.480Z,99999.09
2023-01-31T23:06:48.751Z,99998.69
2023-01-31T23:09:17.019Z,99991.25
2023-01-31T23:11:45.548Z,99990.81
2023-01-31T23:14:14.739Z,99985.53
2023-01-31T23:17:01.711Z,99979.91
2023-01-31T23:19:33.478Z,99984.69
2023-01-31T23:22:05.350Z,99984.88
2023-01-31T23:24:35.158Z,99983.97
2023-01-31T23:27:03.036Z,99979.69
2023-01-31T23:29:33.453Z,99974.41
2023-01-31T23:32:07.829Z,99973.31
2023-01-31T23:34:36.396Z,99968.81
2023-01-31T23:37:04.308Z,99972.19
2023-01-31T23:39:31.841Z,99966.78
2023-01-31T23:41:59.359Z,99956.09
2023-01-31T23:44:27.317Z,99954.50
2023-01-31T23:47:02.788Z,99957.75
2023-01-31T23:49:31.521Z,99953.91
2023-01-31T23:52:05.800Z,99947.75
2023-01-31T23:54:34.512Z,99942.69
2023-01-31T23:57:03.704Z,99945.19
2023-01-31T23:59:33.127Z,99937.72
